sensor_id;sensor_type;location;lat;lon;timestamp;temperature;humidity
59311;DHT22;45078;51.654;21.250;2023-08-06T00:00:27;19.10;99.90
59311;DHT22;45078;51.654;21.250;2023-08-06T00:02:53;19.10;99.90
59311;DHT22;45078;51.654;21.250;2023-08-06T00:05:19;19.10;99.90
59311;DHT22;45078;51.654;21.250;2023-08-06T00:07:50;19.00;99.90
59311;DHT22;45078;51.654;21.250;2023-08-06T00:10:16;19.00;99.90
59311;DHT22;45078;51.654;21.250;2023-08-06T00:12:43;19.00;99.90
59311;DHT22;45078;51.654;21.250;2023-08-06T00:15:09;19.00;99.90
59311;DHT22;45078;51.654;21.250;2023-08-06T00:17:35;18.90;99.90
59311;DHT22;45078;51.654;21.250;2023-08-06T00:20:04;18.90;99.90
59311;DHT22;45078;51.654;21.250;2023-08-06T00:22:36;18.90;99.90
59311;DHT22;45078;51.654;21.250;2023-08-06T00:25:03;18.90;99.90
59311;DHT22;45078;51.654;21.250;2023-08-06T00:27:29;18.90;99.90
59311;DHT22;45078;51.654;21.250;2023-08-06T00:29:55;18.90;99.90
59311;DHT22;45078;51.654;21.250;2023-08-06T00:32:22;18.90;99.90
59311;DHT22;45078;51.654;21.250;2023-08-06T00:34:48;18.90;99.90
59311;DHT22;45078;51.654;21.250;2023-08-06T00:37:16;18.90;99.90
59311;DHT22;45078;51.654;21.250;2023-08-06T00:39:42;18.90;99.90
59311;DHT22;45078;51.654;21.250;2023-08-06T00:42:09;18.90;99.90
59311;DHT22;45078;51.654;21.250;2023-08-06T00:44:35;18.90;99.90
59311;DHT22;45078;51.654;21.250;2023-08-06T00:47:01;18.90;99.90
59311;DHT22;45078;51.654;21.250;2023-08-06T00:49:27;18.90;99.90
59311;DHT22;45078;51.654;21.250;2023-08-06T00:51:53;18.90;99.90
59311;DHT22;45078;51.654;21.250;2023-08-06T00:54:19;18.90;99.90
59311;DHT22;45078;51.654;21.250;2023-08-06T00:56:45;18.90;99.90
59311;DHT22;45078;51.654;21.250;2023-08-06T00:59:12;18.90;99.90
59311;DHT22;45078;51.654;21.250;2023-08-06T01:01:38;18.90;99.90
59311;DHT22;45078;51.654;21.250;2023-08-06T01:04:04;18.90;99.90
59311;DHT22;45078;51.654;21.250;2023-08-06T01:07:16;18.90;99.90
59311;DHT22;45078;51.654;21.250;2023-08-06T01:10:03;18.90;99.90
59311;DHT22;45078;51.654;21.250;2023-08-06T01:13:02;18.90;99.90
59311;DHT22;45078;51.654;21.250;2023-08-06T01:15:38;19.00;99.90
59311;DHT22;45078;51.654;21.250;2023-08-06T01:18:06;19.00;99.90
59311;DHT22;45078;51.654;21.250;2023-08-06T01:20:33;19.00;99.90
59311;DHT22;45078;51.654;21.250;2023-08-06T01:22:58;19.00;99.90
59311;DHT22;45078;51.654;21.250;2023-08-06T01:25:33;19.00;99.90
59311;DHT22;45078;51.654;21.250;2023-08-06T01:28:06;19.00;99.90
59311;DHT22;45078;51.654;21.250;2023-08-06T01:30:38;19.00;99.90
59311;DHT22;45078;51.654;21.250;2023-08-06T01:33:09;19.10;99.90
59311;DHT22;45078;51.654;21.250;2023-08-06T01:35:35;19.10;99.90
59311;DHT22;45078;51.654;21.250;2023-08-06T01:38:03;19.10;99.90
59311;DHT22;45078;51.654;21.250;2023-08-06T01:40:29;19.10;99.90
59311;DHT22;45078;51.654;21.250;2023-08-06T01:42:55;19.10;99.90
59311;DHT22;45078;51.654;21.250;2023-08-06T01:45:20;19.10;99.90
59311;DHT22;45078;51.654;21.250;2023-08-06T01:47:46;19.10;99.90
59311;DHT22;45078;51.654;21.250;2023-08-06T01:50:12;19.10;99.90
59311;DHT22;45078;51.654;21.250;2023-08-06T01:52:37;19.10;99.90
59311;DHT22;45078;51.654;21.250;2023-08-06T01:55:04;19.10;99.90
59311;DHT22;45078;51.654;21.250;2023-08-06T01:57:29;19.10;99.90
59311;DHT22;45078;51.654;21.250;2023-08-06T01:59:55;19.10;99.90
59311;DHT22;45078;51.654;21.250;2023-08-06T02:02:21;19.20;99.90
59311;DHT22;45078;51.654;21.250;2023-08-06T02:04:46;19.20;99.90
59311;DHT22;45078;51.654;21.250;2023-08-06T02:07:12;19.20;99.90
59311;DHT22;45078;51.654;21.250;2023-08-06T02:09:38;19.20;99.90
59311;DHT22;45078;51.654;21.250;2023-08-06T02:12:04;19.20;99.90
59311;DHT22;45078;51.654;21.250;2023-08-06T02:14:29;19.20;99.90
59311;DHT22;45078;51.654;21.250;2023-08-06T02:16:55;19.20;99.90
59311;DHT22;45078;51.654;21.250;2023-08-06T02:19:21;19.10;99.90
59311;DHT22;45078;51.654;21.250;2023-08-06T02:21:47;19.20;99.90
59311;DHT22;45078;51.654;21.250;2023-08-06T02:24:12;19.10;99.90
59311;DHT22;45078;51.654;21.250;2023-08-06T02:26:38;19.20;99.90
59311;DHT22;45078;51.654;21.250;2023-08-06T02:29:04;19.10;99.90
59311;DHT22;45078;51.654;21.250;2023-08-06T02:31:29;19.10;99.90
59311;DHT22;45078;51.654;21.250;2023-08-06T02:33:55;19.10;99.90
59311;DHT22;45078;51.654;21.250;2023-08-06T02:36:21;19.20;99.90
59311;DHT22;45078;51.654;21.250;2023-08-06T02:38:47;19.20;99.90
59311;DHT22;45078;51.654;21.250;2023-08-06T02:41:12;19.20;99.90
59311;DHT22;45078;51.654;21.250;2023-08-06T02:43:38;19.20;99.90
59311;DHT22;45078;51.654;21.250;2023-08-06T02:46:04;19.20;99.90
59311;DHT22;45078;51.654;21.250;2023-08-06T02:48:30;19.20;99.90
59311;DHT22;45078;51.654;21.250;2023-08-06T02:50:59;19.20;99.90
59311;DHT22;45078;51.654;21.250;2023-08-06T02:53:25;19.20;99.90
59311;DHT22;45078;51.654;21.250;2023-08-06T02:55:51;19.20;99.90
59311;DHT22;45078;51.654;21.250;2023-08-06T02:58:17;19.20;99.90
59311;DHT22;45078;51.654;21.250;2023-08-06T03:00:58;19.20;99.90
59311;DHT22;45078;51.654;21.250;2023-08-06T03:03:24;19.20;99.90
59311;DHT22;45078;51.654;21.250;2023-08-06T03:05:53;19.20;99.90
59311;DHT22;45078;51.654;21.250;2023-08-06T03:08:19;19.20;99.90
59311;DHT22;45078;51.654;21.250;2023-08-06T03:10:48;19.20;99.90
59311;DHT22;45078;51.654;21.250;2023-08-06T03:13:14;19.20;99.90
59311;DHT22;45078;51.654;21.250;2023-08-06T03:15:40;19.20;99.90
59311;DHT22;45078;51.654;21.250;2023-08-06T03:18:05;19.20;99.90
59311;DHT22;45078;51.654;21.250;2023-08-06T03:20:32;19.20;99.90
59311;DHT22;45078;51.654;21.250;2023-08-06T03:22:58;19.30;99.90
59311;DHT22;45078;51.654;21.250;2023-08-06T03:25:23;19.30;99.90
59311;DHT22;45078;51.654;21.250;2023-08-06T03:27:49;19.30;99.90
59311;DHT22;45078;51.654;21.250;2023-08-06T03:30:15;19.30;99.90
59311;DHT22;45078;51.654;21.250;2023-08-06T03:32:41;19.30;99.90
59311;DHT22;45078;51.654;21.250;2023-08-06T03:35:07;19.30;99.90
59311;DHT22;45078;51.654;21.250;2023-08-06T03:37:33;19.30;99.90
59311;DHT22;45078;51.654;21.250;2023-08-06T03:39:58;19.30;99.90
59311;DHT22;45078;51.654;21.250;2023-08-06T03:42:24;19.30;99.90
59311;DHT22;45078;51.654;21.250;2023-08-06T03:44:50;19.30;99.90
59311;DHT22;45078;51.654;21.250;2023-08-06T03:47:15;19.30;99.90
59311;DHT22;45078;51.654;21.250;2023-08-06T03:49:41;19.30;99.90
59311;DHT22;45078;51.654;21.250;2023-08-06T03:52:07;19.30;99.90
59311;DHT22;45078;51.654;21.250;2023-08-06T03:54:33;19.40;99.90
59311;DHT22;45078;51.654;21.250;2023-08-06T03:56:58;19.40;99.90
59311;DHT22;45078;51.654;21.250;2023-08-06T03:59:24;19.40;99.90
59311;DHT22;45078;51.654;21.250;2023-08-06T04:01:50;19.40;99.90
59311;DHT22;45078;51.654;21.250;2023-08-06T04:04:15;19.40;99.90
59311;DHT22;45078;51.654;21.250;2023-08-06T04:06:41;19.50;99.90
59311;DHT22;45078;51.654;21.250;2023-08-06T04:09:07;19.50;99.90
59311;DHT22;45078;51.654;21.250;2023-08-06T04:11:32;19.50;99.90
59311;DHT22;45078;51.654;21.250;2023-08-06T04:13:58;19.50;99.90
59311;DHT22;45078;51.654;21.250;2023-08-06T04:16:24;19.60;99.90
59311;DHT22;45078;51.654;21.250;2023-08-06T04:18:51;19.60;99.90
59311;DHT22;45078;51.654;21.250;2023-08-06T04:21:19;19.60;99.90
59311;DHT22;45078;51.654;21.250;2023-08-06T04:23:45;19.60;99.90
59311;DHT22;45078;51.654;21.250;2023-08-06T04:26:10;19.70;99.90
59311;DHT22;45078;51.654;21.250;2023-08-06T04:28:36;19.70;99.90
59311;DHT22;45078;51.654;21.250;2023-08-06T04:31:02;19.80;99.90
59311;DHT22;45078;51.654;21.250;2023-08-06T04:33:27;19.80;99.90
59311;DHT22;45078;51.654;21.250;2023-08-06T04:35:56;19.90;99.90
59311;DHT22;45078;51.654;21.250;2023-08-06T04:38:24;19.90;99.90
59311;DHT22;45078;51.654;21.250;2023-08-06T04:40:50;20.00;99.90
59311;DHT22;45078;51.654;21.250;2023-08-06T04:43:16;20.00;99.90
59311;DHT22;45078;51.654;21.250;2023-08-06T04:45:49;20.00;99.90
59311;DHT22;45078;51.654;21.250;2023-08-06T04:48:15;20.00;99.90
59311;DHT22;45078;51.654;21.250;2023-08-06T04:50:48;20.10;99.90
59311;DHT22;45078;51.654;21.250;2023-08-06T04:53:14;20.10;99.90
59311;DHT22;45078;51.654;21.250;2023-08-06T04:55:40;20.20;99.90
59311;DHT22;45078;51.654;21.250;2023-08-06T04:58:06;20.20;99.90
59311;DHT22;45078;51.654;21.250;2023-08-06T05:00:33;20.20;99.90
59311;DHT22;45078;51.654;21.250;2023-08-06T05:03:02;20.10;99.90
59311;DHT22;45078;51.654;21.250;2023-08-06T05:05:28;20.10;99.90
59311;DHT22;45078;51.654;21.250;2023-08-06T05:07:55;20.10;99.90
59311;DHT22;45078;51.654;21.250;2023-08-06T05:10:23;20.20;99.90
59311;DHT22;45078;51.654;21.250;2023-08-06T05:12:49;20.20;99.90
59311;DHT22;45078;51.654;21.250;2023-08-06T05:15:15;20.10;99.90
59311;DHT22;45078;51.654;21.250;2023-08-06T05:17:41;20.10;99.90
59311;DHT22;45078;51.654;21.250;2023-08-06T05:20:07;20.20;99.90
59311;DHT22;45078;51.654;21.250;2023-08-06T05:22:32;20.30;99.90
59311;DHT22;45078;51.654;21.250;2023-08-06T05:24:58;20.30;99.90
59311;DHT22;45078;51.654;21.250;2023-08-06T05:27:24;20.40;99.90
59311;DHT22;45078;51.654;21.250;2023-08-06T05:29:49;20.50;99.90
59311;DHT22;45078;51.654;21.250;2023-08-06T05:32:15;20.50;99.90
59311;DHT22;45078;51.654;21.250;2023-08-06T05:34:41;20.60;99.90
59311;DHT22;45078;51.654;21.250;2023-08-06T05:37:09;20.60;99.90
59311;DHT22;45078;51.654;21.250;2023-08-06T05:39:35;20.70;99.90
59311;DHT22;45078;51.654;21.250;2023-08-06T05:42:01;20.80;99.90
59311;DHT22;45078;51.654;21.250;2023-08-06T05:44:26;20.90;99.90
59311;DHT22;45078;51.654;21.250;2023-08-06T05:46:52;21.00;99.90
59311;DHT22;45078;51.654;21.250;2023-08-06T05:49:19;21.00;99.90
59311;DHT22;45078;51.654;21.250;2023-08-06T05:51:44;21.10;99.90
59311;DHT22;45078;51.654;21.250;2023-08-06T05:54:10;21.20;99.90
59311;DHT22;45078;51.654;21.250;2023-08-06T05:56:36;21.40;99.90
59311;DHT22;45078;51.654;21.250;2023-08-06T05:59:01;21.50;99.90
59311;DHT22;45078;51.654;21.250;2023-08-06T06:01:27;21.50;99.90
59311;DHT22;45078;51.654;21.250;2023-08-06T06:03:53;21.60;99.90
59311;DHT22;45078;51.654;21.250;2023-08-06T06:06:18;21.70;99.90
59311;DHT22;45078;51.654;21.250;2023-08-06T06:08:45;21.80;99.90
59311;DHT22;45078;51.654;21.250;2023-08-06T06:11:11;22.00;99.90
59311;DHT22;45078;51.654;21.250;2023-08-06T06:13:37;22.00;99.90
59311;DHT22;45078;51.654;21.250;2023-08-06T06:16:02;22.20;99.90
59311;DHT22;45078;51.654;21.250;2023-08-06T06:18:28;22.30;99.90
59311;DHT22;45078;51.654;21.250;2023-08-06T06:20:54;22.50;99.90
59311;DHT22;45078;51.654;21.250;2023-08-06T06:23:19;22.60;99.90
59311;DHT22;45078;51.654;21.250;2023-08-06T06:25:49;22.70;99.90
59311;DHT22;45078;51.654;21.250;2023-08-06T06:28:17;22.70;99.90
59311;DHT22;45078;51.654;21.250;2023-08-06T06:30:43;22.80;99.90
59311;DHT22;45078;51.654;21.250;2023-08-06T06:33:09;23.00;99.90
59311;DHT22;45078;51.654;21.250;2023-08-06T06:35:34;23.10;99.90
59311;DHT22;45078;51.654;21.250;2023-08-06T06:38:00;23.10;99.90
59311;DHT22;45078;51.654;21.250;2023-08-06T06:40:26;23.10;99.90
59311;DHT22;45078;51.654;21.250;2023-08-06T06:42:52;23.00;99.90
59311;DHT22;45078;51.654;21.250;2023-08-06T06:45:18;22.90;99.90
59311;DHT22;45078;51.654;21.250;2023-08-06T06:47:43;23.00;99.90
59311;DHT22;45078;51.654;21.250;2023-08-06T06:50:09;23.20;99.90
59311;DHT22;45078;51.654;21.250;2023-08-06T06:52:35;23.30;99.90
59311;DHT22;45078;51.654;21.250;2023-08-06T06:55:01;23.40;99.90
59311;DHT22;45078;51.654;21.250;2023-08-06T06:57:26;23.40;99.90
59311;DHT22;45078;51.654;21.250;2023-08-06T06:59:52;23.40;99.90
59311;DHT22;45078;51.654;21.250;2023-08-06T07:02:18;23.50;99.90
59311;DHT22;45078;51.654;21.250;2023-08-06T07:04:44;23.70;99.90
59311;DHT22;45078;51.654;21.250;2023-08-06T07:07:09;23.90;99.90
59311;DHT22;45078;51.654;21.250;2023-08-06T07:09:35;24.00;99.90
59311;DHT22;45078;51.654;21.250;2023-08-06T07:12:01;24.10;99.90
59311;DHT22;45078;51.654;21.250;2023-08-06T07:14:28;24.20;99.90
59311;DHT22;45078;51.654;21.250;2023-08-06T07:16:54;24.40;99.90
59311;DHT22;45078;51.654;21.250;2023-08-06T07:19:20;24.60;99.90
59311;DHT22;45078;51.654;21.250;2023-08-06T07:21:46;24.80;99.90
59311;DHT22;45078;51.654;21.250;2023-08-06T07:24:11;24.90;99.90
59311;DHT22;45078;51.654;21.250;2023-08-06T07:26:37;25.00;99.90
59311;DHT22;45078;51.654;21.250;2023-08-06T07:29:03;25.10;99.90
59311;DHT22;45078;51.654;21.250;2023-08-06T07:31:29;25.20;99.90
59311;DHT22;45078;51.654;21.250;2023-08-06T07:33:54;25.20;99.90
59311;DHT22;45078;51.654;21.250;2023-08-06T07:36:20;25.30;99.90
59311;DHT22;45078;51.654;21.250;2023-08-06T07:38:46;25.30;99.90
59311;DHT22;45078;51.654;21.250;2023-08-06T07:41:14;25.30;99.90
59311;DHT22;45078;51.654;21.250;2023-08-06T07:43:39;25.40;99.90
59311;DHT22;45078;51.654;21.250;2023-08-06T07:46:05;25.50;99.90
59311;DHT22;45078;51.654;21.250;2023-08-06T07:48:31;25.50;99.90
59311;DHT22;45078;51.654;21.250;2023-08-06T07:50:57;25.60;99.90
59311;DHT22;45078;51.654;21.250;2023-08-06T07:53:24;25.70;99.90
59311;DHT22;45078;51.654;21.250;2023-08-06T07:55:53;25.70;99.90
59311;DHT22;45078;51.654;21.250;2023-08-06T07:58:20;25.80;99.90
59311;DHT22;45078;51.654;21.250;2023-08-06T08:00:46;25.90;99.90
59311;DHT22;45078;51.654;21.250;2023-08-06T08:03:13;25.90;99.90
59311;DHT22;45078;51.654;21.250;2023-08-06T08:05:39;26.00;99.90
59311;DHT22;45078;51.654;21.250;2023-08-06T08:08:05;26.00;99.90
59311;DHT22;45078;51.654;21.250;2023-08-06T08:10:32;26.10;99.90
59311;DHT22;45078;51.654;21.250;2023-08-06T08:12:58;26.20;99.90
59311;DHT22;45078;51.654;21.250;2023-08-06T08:15:24;26.10;99.90
59311;DHT22;45078;51.654;21.250;2023-08-06T08:17:53;26.10;99.90
59311;DHT22;45078;51.654;21.250;2023-08-06T08:20:20;26.20;99.90
59311;DHT22;45078;51.654;21.250;2023-08-06T08:22:45;26.40;99.90
59311;DHT22;45078;51.654;21.250;2023-08-06T08:25:11;26.40;99.90
59311;DHT22;45078;51.654;21.250;2023-08-06T08:27:37;26.30;99.90
59311;DHT22;45078;51.654;21.250;2023-08-06T08:30:03;26.40;99.90
59311;DHT22;45078;51.654;21.250;2023-08-06T08:32:29;26.50;99.90
59311;DHT22;45078;51.654;21.250;2023-08-06T08:34:55;26.60;99.90
59311;DHT22;45078;51.654;21.250;2023-08-06T08:37:20;26.70;99.90
59311;DHT22;45078;51.654;21.250;2023-08-06T08:39:46;26.80;99.90
59311;DHT22;45078;51.654;21.250;2023-08-06T08:42:12;26.90;99.90
59311;DHT22;45078;51.654;21.250;2023-08-06T08:44:45;26.90;99.90
59311;DHT22;45078;51.654;21.250;2023-08-06T08:47:11;27.00;99.90
59311;DHT22;45078;51.654;21.250;2023-08-06T08:49:38;26.90;99.90
59311;DHT22;45078;51.654;21.250;2023-08-06T08:52:06;27.00;99.90
59311;DHT22;45078;51.654;21.250;2023-08-06T08:54:35;27.10;99.90
59311;DHT22;45078;51.654;21.250;2023-08-06T08:57:03;27.10;99.90
59311;DHT22;45078;51.654;21.250;2023-08-06T08:59:29;27.20;99.90
59311;DHT22;45078;51.654;21.250;2023-08-06T09:01:55;27.40;99.90
59311;DHT22;45078;51.654;21.250;2023-08-06T09:04:22;27.30;99.90
59311;DHT22;45078;51.654;21.250;2023-08-06T09:06:50;27.30;99.90
59311;DHT22;45078;51.654;21.250;2023-08-06T09:09:27;27.20;99.90
59311;DHT22;45078;51.654;21.250;2023-08-06T09:11:55;27.20;99.90
59311;DHT22;45078;51.654;21.250;2023-08-06T09:14:25;27.30;99.90
59311;DHT22;45078;51.654;21.250;2023-08-06T09:16:52;27.60;99.90
59311;DHT22;45078;51.654;21.250;2023-08-06T09:19:17;27.60;99.90
59311;DHT22;45078;51.654;21.250;2023-08-06T09:21:45;27.50;99.90
59311;DHT22;45078;51.654;21.250;2023-08-06T09:24:14;27.50;99.90
59311;DHT22;45078;51.654;21.250;2023-08-06T09:26:43;27.70;99.90
59311;DHT22;45078;51.654;21.250;2023-08-06T09:29:10;27.80;99.90
59311;DHT22;45078;51.654;21.250;2023-08-06T09:31:44;27.90;99.90
59311;DHT22;45078;51.654;21.250;2023-08-06T09:34:11;27.90;99.90
59311;DHT22;45078;51.654;21.250;2023-08-06T09:36:49;27.80;99.90
59311;DHT22;45078;51.654;21.250;2023-08-06T09:39:17;27.80;99.90
59311;DHT22;45078;51.654;21.250;2023-08-06T09:41:44;27.80;99.90
59311;DHT22;45078;51.654;21.250;2023-08-06T09:44:16;27.70;99.90
59311;DHT22;45078;51.654;21.250;2023-08-06T09:46:47;27.70;99.90
59311;DHT22;45078;51.654;21.250;2023-08-06T09:49:12;27.60;99.90
59311;DHT22;45078;51.654;21.250;2023-08-06T09:51:38;27.50;99.90
59311;DHT22;45078;51.654;21.250;2023-08-06T09:54:06;27.50;99.90
59311;DHT22;45078;51.654;21.250;2023-08-06T09:56:34;27.50;99.90
59311;DHT22;45078;51.654;21.250;2023-08-06T09:59:04;27.60;99.90
59311;DHT22;45078;51.654;21.250;2023-08-06T10:01:35;27.70;99.90
59311;DHT22;45078;51.654;21.250;2023-08-06T10:04:03;27.70;99.90
59311;DHT22;45078;51.654;21.250;2023-08-06T10:06:29;27.50;99.90
59311;DHT22;45078;51.654;21.250;2023-08-06T10:08:55;27.50;99.90
59311;DHT22;45078;51.654;21.250;2023-08-06T10:11:23;27.50;99.90
59311;DHT22;45078;51.654;21.250;2023-08-06T10:13:50;27.60;99.90
59311;DHT22;45078;51.654;21.250;2023-08-06T10:16:19;27.70;99.90
59311;DHT22;45078;51.654;21.250;2023-08-06T10:18:47;28.00;99.90
59311;DHT22;45078;51.654;21.250;2023-08-06T10:21:14;28.00;99.90
59311;DHT22;45078;51.654;21.250;2023-08-06T10:23:41;27.80;99.90
59311;DHT22;45078;51.654;21.250;2023-08-06T10:26:07;27.70;99.90
59311;DHT22;45078;51.654;21.250;2023-08-06T10:28:37;27.60;99.90
59311;DHT22;45078;51.654;21.250;2023-08-06T10:31:03;27.60;99.90
59311;DHT22;45078;51.654;21.250;2023-08-06T10:33:45;27.80;99.90
59311;DHT22;45078;51.654;21.250;2023-08-06T10:36:12;28.10;99.90
59311;DHT22;45078;51.654;21.250;2023-08-06T10:38:46;28.20;99.90
59311;DHT22;45078;51.654;21.250;2023-08-06T10:41:23;28.40;99.90
59311;DHT22;45078;51.654;21.250;2023-08-06T10:43:52;28.40;99.90
59311;DHT22;45078;51.654;21.250;2023-08-06T10:46:30;28.40;99.90
59311;DHT22;45078;51.654;21.250;2023-08-06T10:48:56;28.20;99.90
59311;DHT22;45078;51.654;21.250;2023-08-06T10:51:22;28.30;99.90
59311;DHT22;45078;51.654;21.250;2023-08-06T10:53:49;28.40;99.90
59311;DHT22;45078;51.654;21.250;2023-08-06T10:56:19;28.60;99.90
59311;DHT22;45078;51.654;21.250;2023-08-06T10:58:48;28.70;99.90
59311;DHT22;45078;51.654;21.250;2023-08-06T11:01:14;28.80;99.90
59311;DHT22;45078;51.654;21.250;2023-08-06T11:03:42;28.90;99.90
59311;DHT22;45078;51.654;21.250;2023-08-06T11:06:09;29.00;99.90
59311;DHT22;45078;51.654;21.250;2023-08-06T11:08:37;29.10;99.90
59311;DHT22;45078;51.654;21.250;2023-08-06T11:11:13;29.10;99.90
59311;DHT22;45078;51.654;21.250;2023-08-06T11:13:44;29.20;99.90
59311;DHT22;45078;51.654;21.250;2023-08-06T11:16:14;29.40;99.90
59311;DHT22;45078;51.654;21.250;2023-08-06T11:18:40;29.50;99.90
59311;DHT22;45078;51.654;21.250;2023-08-06T11:21:07;29.50;99.90
59311;DHT22;45078;51.654;21.250;2023-08-06T11:23:34;29.40;99.90
59311;DHT22;45078;51.654;21.250;2023-08-06T11:26:00;29.00;99.90
59311;DHT22;45078;51.654;21.250;2023-08-06T11:28:26;28.90;99.90
59311;DHT22;45078;51.654;21.250;2023-08-06T11:30:53;28.70;99.90
59311;DHT22;45078;51.654;21.250;2023-08-06T11:33:25;28.90;99.90
59311;DHT22;45078;51.654;21.250;2023-08-06T11:35:51;28.80;99.90
59311;DHT22;45078;51.654;21.250;2023-08-06T11:38:18;28.60;99.90
59311;DHT22;45078;51.654;21.250;2023-08-06T11:40:45;28.40;99.90
59311;DHT22;45078;51.654;21.250;2023-08-06T11:43:12;28.20;99.90
59311;DHT22;45078;51.654;21.250;2023-08-06T11:45:38;28.00;99.90
59311;DHT22;45078;51.654;21.250;2023-08-06T11:48:04;27.90;99.90
59311;DHT22;45078;51.654;21.250;2023-08-06T11:50:30;27.70;99.90
59311;DHT22;45078;51.654;21.250;2023-08-06T11:52:58;27.60;99.90
59311;DHT22;45078;51.654;21.250;2023-08-06T11:55:25;27.50;99.90
59311;DHT22;45078;51.654;21.250;2023-08-06T11:57:51;27.40;99.90
59311;DHT22;45078;51.654;21.250;2023-08-06T12:00:17;27.30;99.90
59311;DHT22;45078;51.654;21.250;2023-08-06T12:02:46;27.20;99.90
59311;DHT22;45078;51.654;21.250;2023-08-06T12:07:42;27.00;99.90
59311;DHT22;45078;51.654;21.250;2023-08-06T12:10:09;27.00;99.90
59311;DHT22;45078;51.654;21.250;2023-08-06T12:12:35;26.90;99.90
59311;DHT22;45078;51.654;21.250;2023-08-06T12:15:03;26.80;99.90
59311;DHT22;45078;51.654;21.250;2023-08-06T12:17:29;26.70;99.90
59311;DHT22;45078;51.654;21.250;2023-08-06T12:19:54;26.60;99.90
59311;DHT22;45078;51.654;21.250;2023-08-06T12:22:20;26.00;99.90
59311;DHT22;45078;51.654;21.250;2023-08-06T12:24:46;25.70;99.90
59311;DHT22;45078;51.654;21.250;2023-08-06T12:27:13;25.20;99.90
59311;DHT22;45078;51.654;21.250;2023-08-06T12:29:47;24.80;99.90
59311;DHT22;45078;51.654;21.250;2023-08-06T12:32:14;24.70;99.90
59311;DHT22;45078;51.654;21.250;2023-08-06T12:34:41;24.40;99.90
59311;DHT22;45078;51.654;21.250;2023-08-06T12:37:08;24.30;99.90
59311;DHT22;45078;51.654;21.250;2023-08-06T12:39:34;24.10;99.90
59311;DHT22;45078;51.654;21.250;2023-08-06T12:42:05;24.00;99.90
59311;DHT22;45078;51.654;21.250;2023-08-06T12:44:32;23.90;99.90
59311;DHT22;45078;51.654;21.250;2023-08-06T12:46:58;23.80;99.90
59311;DHT22;45078;51.654;21.250;2023-08-06T12:49:25;23.80;99.90
59311;DHT22;45078;51.654;21.250;2023-08-06T12:51:54;23.70;99.90
59311;DHT22;45078;51.654;21.250;2023-08-06T12:54:20;23.70;99.90
59311;DHT22;45078;51.654;21.250;2023-08-06T12:56:47;23.80;99.90
59311;DHT22;45078;51.654;21.250;2023-08-06T12:59:17;23.80;99.90
59311;DHT22;45078;51.654;21.250;2023-08-06T13:01:43;23.80;99.90
59311;DHT22;45078;51.654;21.250;2023-08-06T13:04:10;23.90;99.90
59311;DHT22;45078;51.654;21.250;2023-08-06T13:06:36;23.90;99.90
59311;DHT22;45078;51.654;21.250;2023-08-06T13:09:12;24.10;99.90
59311;DHT22;45078;51.654;21.250;2023-08-06T13:11:41;24.10;99.90
59311;DHT22;45078;51.654;21.250;2023-08-06T13:14:09;24.20;99.90
59311;DHT22;45078;51.654;21.250;2023-08-06T13:16:36;24.40;99.90
59311;DHT22;45078;51.654;21.250;2023-08-06T13:19:03;24.50;99.90
59311;DHT22;45078;51.654;21.250;2023-08-06T13:21:34;24.70;99.90
59311;DHT22;45078;51.654;21.250;2023-08-06T13:24:01;25.00;99.90
59311;DHT22;45078;51.654;21.250;2023-08-06T13:26:28;25.30;99.90
59311;DHT22;45078;51.654;21.250;2023-08-06T13:28:57;25.60;99.90
59311;DHT22;45078;51.654;21.250;2023-08-06T13:31:23;25.80;99.90
59311;DHT22;45078;51.654;21.250;2023-08-06T13:33:48;26.10;99.90
59311;DHT22;45078;51.654;21.250;2023-08-06T13:36:16;25.90;99.90
59311;DHT22;45078;51.654;21.250;2023-08-06T13:38:42;25.90;99.90
59311;DHT22;45078;51.654;21.250;2023-08-06T13:41:07;25.70;99.90
59311;DHT22;45078;51.654;21.250;2023-08-06T13:43:33;25.60;99.90
59311;DHT22;45078;51.654;21.250;2023-08-06T13:45:59;25.50;99.90
59311;DHT22;45078;51.654;21.250;2023-08-06T13:48:25;25.50;99.90
59311;DHT22;45078;51.654;21.250;2023-08-06T13:50:50;25.40;99.90
59311;DHT22;45078;51.654;21.250;2023-08-06T13:53:16;25.50;99.90
59311;DHT22;45078;51.654;21.250;2023-08-06T13:55:42;25.70;99.90
59311;DHT22;45078;51.654;21.250;2023-08-06T13:58:07;25.90;99.90
59311;DHT22;45078;51.654;21.250;2023-08-06T14:00:35;26.00;99.90
59311;DHT22;45078;51.654;21.250;2023-08-06T14:03:01;26.10;99.90
59311;DHT22;45078;51.654;21.250;2023-08-06T14:05:27;26.20;99.90
59311;DHT22;45078;51.654;21.250;2023-08-06T14:07:52;26.30;99.90
59311;DHT22;45078;51.654;21.250;2023-08-06T14:10:18;26.30;99.90
59311;DHT22;45078;51.654;21.250;2023-08-06T14:12:44;26.30;99.90
59311;DHT22;45078;51.654;21.250;2023-08-06T14:15:11;26.20;99.90
59311;DHT22;45078;51.654;21.250;2023-08-06T14:17:37;26.10;99.90
59311;DHT22;45078;51.654;21.250;2023-08-06T14:20:04;26.30;99.90
59311;DHT22;45078;51.654;21.250;2023-08-06T14:22:30;26.60;99.90
59311;DHT22;45078;51.654;21.250;2023-08-06T14:24:58;26.90;99.90
59311;DHT22;45078;51.654;21.250;2023-08-06T14:27:24;27.10;99.90
59311;DHT22;45078;51.654;21.250;2023-08-06T14:29:49;27.20;99.90
59311;DHT22;45078;51.654;21.250;2023-08-06T14:32:15;27.30;99.90
59311;DHT22;45078;51.654;21.250;2023-08-06T14:34:43;27.50;99.90
59311;DHT22;45078;51.654;21.250;2023-08-06T14:37:10;27.70;99.90
59311;DHT22;45078;51.654;21.250;2023-08-06T14:39:35;27.80;99.90
59311;DHT22;45078;51.654;21.250;2023-08-06T14:42:01;27.70;99.90
59311;DHT22;45078;51.654;21.250;2023-08-06T14:44:27;27.60;99.90
59311;DHT22;45078;51.654;21.250;2023-08-06T14:46:53;27.40;99.40
59311;DHT22;45078;51.654;21.250;2023-08-06T14:49:19;27.20;99.90
59311;DHT22;45078;51.654;21.250;2023-08-06T14:51:45;27.20;99.90
59311;DHT22;45078;51.654;21.250;2023-08-06T14:54:11;27.20;99.90
59311;DHT22;45078;51.654;21.250;2023-08-06T14:56:36;27.20;99.90
59311;DHT22;45078;51.654;21.250;2023-08-06T14:59:02;27.10;99.90
59311;DHT22;45078;51.654;21.250;2023-08-06T15:01:28;27.00;99.90
59311;DHT22;45078;51.654;21.250;2023-08-06T15:03:54;27.00;99.90
59311;DHT22;45078;51.654;21.250;2023-08-06T15:06:20;27.00;99.90
59311;DHT22;45078;51.654;21.250;2023-08-06T15:08:45;26.80;99.90
59311;DHT22;45078;51.654;21.250;2023-08-06T15:11:13;26.60;99.90
59311;DHT22;45078;51.654;21.250;2023-08-06T15:13:40;26.50;99.90
59311;DHT22;45078;51.654;21.250;2023-08-06T15:16:05;26.40;99.90